createdAt,value
2022-08-16T00:03:37.730Z,21.99
2022-08-16T00:08:40.993Z,21.98
2022-08-16T00:13:53.403Z,21.92
2022-08-16T00:19:00.263Z,21.91
2022-08-16T00:24:04.738Z,21.87
2022-08-16T00:29:08.506Z,21.89
2022-08-16T00:34:18.237Z,21.84
2022-08-16T00:39:22.044Z,21.79
2022-08-16T00:44:32.820Z,21.74
2022-08-16T00:49:39.470Z,21.87
2022-08-16T00:54:47.850Z,21.82
2022-08-16T00:59:58.756Z,21.81
2022-08-16T01:05:09.537Z,21.87
2022-08-16T01:10:16.153Z,21.88
2022-08-16T01:15:20.786Z,21.79
2022-08-16T01:20:33.978Z,21.78
2022-08-16T01:25:44.147Z,21.81
2022-08-16T01:30:50.996Z,21.87
2022-08-16T01:35:58.001Z,21.80
2022-08-16T01:41:05.668Z,21.68
2022-08-16T01:46:29.719Z,21.58
2022-08-16T01:51:34.962Z,21.45
2022-08-16T01:56:44.854Z,21.45
2022-08-16T02:01:59.454Z,21.37
2022-08-16T02:07:11.168Z,21.25
2022-08-16T02:12:51.725Z,21.23
2022-08-16T02:17:40.073Z,21.19
2022-08-16T02:22:43.686Z,21.02
2022-08-16T02:27:52.041Z,21.02
2022-08-16T02:32:56.135Z,20.92
2022-08-16T02:38:08.398Z,21.07
2022-08-16T02:43:13.938Z,21.11
2022-08-16T02:48:29.133Z,21.19
2022-08-16T02:53:34.787Z,21.23
2022-08-16T02:58:40.459Z,21.24
2022-08-16T03:04:30.199Z,21.05
2022-08-16T03:09:13.858Z,21.04
2022-08-16T03:14:21.270Z,21.03
2022-08-16T03:19:48.346Z,21.09
2022-08-16T03:24:51.730Z,21.13
2022-08-16T03:29:56.173Z,21.06
2022-08-16T03:34:59.939Z,20.92
2022-08-16T03:40:07.366Z,20.78
2022-08-16T03:45:12.412Z,20.84
2022-08-16T03:50:26.159Z,20.86
2022-08-16T03:55:39.987Z,20.90
2022-08-16T04:00:56.941Z,20.93
2022-08-16T04:06:02.792Z,20.90
2022-08-16T04:11:06.441Z,20.90
2022-08-16T04:16:26.730Z,20.98
2022-08-16T04:21:32.326Z,21.01
2022-08-16T04:26:36.362Z,21.14
2022-08-16T04:31:41.149Z,21.13
2022-08-16T04:36:48.918Z,21.28
2022-08-16T04:41:57.010Z,21.40
2022-08-16T04:47:21.668Z,21.51
2022-08-16T04:52:33.112Z,21.69
2022-08-16T04:57:38.488Z,21.82
2022-08-16T05:02:43.371Z,21.98
2022-08-16T05:07:58.617Z,22.07
2022-08-16T05:13:05.145Z,22.19
2022-08-16T05:18:15.861Z,22.14
2022-08-16T05:23:19.660Z,22.16
2022-08-16T05:28:30.935Z,22.08
2022-08-16T05:33:42.497Z,22.27
2022-08-16T05:38:46.054Z,22.35
2022-08-16T05:43:49.495Z,22.43
2022-08-16T05:48:54.745Z,22.60
2022-08-16T05:53:58.306Z,22.63
2022-08-16T05:59:01.183Z,22.82
2022-08-16T06:04:13.557Z,22.96
2022-08-16T06:09:43.405Z,23.03
2022-08-16T06:14:47.212Z,23.11
2022-08-16T06:19:55.961Z,23.18
2022-08-16T06:24:59.612Z,23.13
2022-08-16T06:30:04.030Z,23.35
2022-08-16T06:35:12.171Z,23.50
2022-08-16T06:40:15.751Z,23.79
2022-08-16T06:45:19.462Z,23.73
2022-08-16T06:50:29.476Z,23.86
2022-08-16T06:55:34.921Z,24.01
2022-08-16T07:00:43.048Z,24.50
2022-08-16T07:05:47.821Z,24.49
2022-08-16T07:10:50.883Z,24.92
2022-08-16T07:15:55.329Z,25.31
2022-08-16T07:21:02.275Z,25.42
2022-08-16T07:26:08.003Z,25.58
2022-08-16T07:31:12.975Z,25.56
2022-08-16T07:36:21.682Z,25.88
2022-08-16T07:41:25.566Z,25.92
2022-08-16T07:46:38.777Z,25.83
2022-08-16T07:51:46.014Z,25.96
2022-08-16T07:56:49.790Z,26.01
2022-08-16T08:01:55.181Z,26.08
2022-08-16T08:07:00.511Z,26.28
2022-08-16T08:12:05.488Z,26.42
2022-08-16T08:17:09.384Z,26.37
2022-08-16T08:22:18.902Z,26.73
2022-08-16T08:27:23.513Z,26.71
2022-08-16T08:32:57.757Z,26.87
2022-08-16T08:37:55.364Z,27.25
2022-08-16T08:43:11.657Z,27.32
2022-08-16T08:48:34.255Z,27.17
2022-08-16T08:53:40.712Z,27.08
2022-08-16T08:58:54.041Z,26.75
2022-08-16T09:04:02.681Z,26.64
2022-08-16T09:09:10.119Z,26.80
2022-08-16T09:14:24.629Z,26.83
2022-08-16T09:19:31.922Z,27.04
2022-08-16T09:24:46.931Z,27.02
2022-08-16T09:30:00.487Z,26.91
2022-08-16T09:35:07.403Z,27.00
2022-08-16T09:40:32.317Z,26.87
2022-08-16T09:45:39.589Z,26.83
2022-08-16T09:50:44.655Z,26.68
2022-08-16T09:55:56.759Z,26.93
2022-08-16T10:01:01.115Z,26.89
2022-08-16T10:06:04.253Z,26.84
2022-08-16T10:11:27.509Z,26.79
2022-08-16T10:16:32.089Z,26.57
2022-08-16T10:21:35.471Z,26.30
2022-08-16T10:27:20.421Z,26.27
2022-08-16T10:32:03.746Z,26.20
2022-08-16T10:37:06.732Z,26.03
2022-08-16T10:42:13.578Z,25.83
2022-08-16T10:47:17.415Z,25.52
2022-08-16T10:52:21.013Z,25.49
2022-08-16T10:57:32.864Z,25.49
2022-08-16T11:02:59.322Z,25.54
2022-08-16T11:08:00.842Z,25.68
2022-08-16T11:18:47.987Z,25.90
2022-08-16T11:23:57.566Z,25.88
2022-08-16T11:29:18.799Z,25.83
2022-08-16T11:34:21.901Z,25.79
2022-08-16T11:39:25.344Z,25.77
2022-08-16T11:44:52.235Z,25.99
2022-08-16T11:49:53.480Z,26.01
2022-08-16T11:55:00.034Z,25.95
2022-08-16T12:00:33.641Z,26.15
2022-08-16T12:05:36.221Z,25.93
2022-08-16T12:10:43.101Z,25.93
2022-08-16T12:15:48.353Z,25.97
2022-08-16T12:20:55.085Z,25.92
2022-08-16T12:25:59.668Z,26.02
2022-08-16T12:31:04.932Z,26.17
2022-08-16T12:36:09.908Z,26.46
2022-08-16T12:41:25.030Z,26.77
2022-08-16T12:46:30.926Z,26.91
2022-08-16T12:51:58.435Z,27.11
2022-08-16T12:57:01.980Z,27.23
2022-08-16T13:02:07.257Z,27.35
2022-08-16T13:07:15.971Z,27.44
2022-08-16T13:12:21.145Z,27.06
2022-08-16T13:17:29.698Z,27.05
2022-08-16T13:22:33.496Z,26.76
2022-08-16T13:28:02.116Z,26.58
2022-08-16T13:33:02.394Z,26.54
2022-08-16T13:38:24.279Z,26.48
2022-08-16T13:43:29.171Z,26.76
2022-08-16T13:48:44.734Z,26.76
2022-08-16T13:53:59.395Z,26.78
2022-08-16T13:59:03.425Z,26.51
2022-08-16T14:04:10.733Z,26.75
2022-08-16T14:09:22.171Z,26.86
2022-08-16T14:14:29.061Z,26.98
2022-08-16T14:19:34.141Z,26.91
2022-08-16T14:24:38.994Z,27.02
2022-08-16T14:29:42.550Z,26.80
2022-08-16T14:34:47.736Z,26.66
2022-08-16T14:39:55.783Z,26.94
2022-08-16T14:45:00.523Z,26.91
2022-08-16T14:50:09.281Z,26.76
2022-08-16T14:55:17.803Z,26.71
2022-08-16T15:00:34.055Z,26.86
2022-08-16T15:05:43.886Z,26.80
2022-08-16T15:10:57.110Z,26.77
2022-08-16T15:16:02.831Z,26.87
2022-08-16T15:21:09.085Z,26.67
2022-08-16T15:26:29.700Z,26.79
2022-08-16T15:31:41.745Z,27.02
2022-08-16T15:36:50.126Z,27.07
2022-08-16T15:42:07.196Z,27.14
2022-08-16T15:47:17.831Z,27.13
2022-08-16T15:52:31.897Z,27.17
2022-08-16T15:57:41.368Z,27.20
2022-08-16T16:02:49.506Z,27.19
2022-08-16T16:08:10.851Z,27.12
2022-08-16T16:13:24.228Z,27.09
2022-08-16T16:18:30.195Z,27.06
2022-08-16T16:23:53.804Z,27.04
2022-08-16T16:29:15.015Z,27.01
2022-08-16T16:34:26.053Z,26.98
2022-08-16T16:39:37.654Z,26.93
2022-08-16T16:44:50.219Z,27.01
2022-08-16T16:49:54.133Z,26.86
2022-08-16T16:54:58.803Z,26.80
2022-08-16T17:00:25.773Z,26.68
2022-08-16T17:05:32.715Z,26.57
2022-08-16T17:10:46.045Z,26.50
2022-08-16T17:15:53.682Z,26.38
2022-08-16T17:20:56.667Z,26.27
2022-08-16T17:26:10.378Z,26.16
2022-08-16T17:31:14.400Z,25.97
2022-08-16T17:36:35.867Z,25.80
2022-08-16T17:41:42.202Z,25.60
2022-08-16T17:47:10.668Z,25.40
2022-08-16T17:52:22.147Z,25.30
2022-08-16T17:57:37.339Z,25.16
2022-08-16T18:03:10.808Z,24.93
2022-08-16T18:08:17.174Z,24.85
2022-08-16T18:13:22.238Z,24.84
2022-08-16T18:18:31.014Z,24.85
2022-08-16T18:23:34.661Z,24.83
2022-08-16T18:28:44.079Z,24.76
2022-08-16T18:33:58.859Z,24.77
2022-08-16T18:39:02.245Z,24.66
2022-08-16T18:44:25.745Z,24.64
2022-08-16T18:49:34.820Z,24.56
2022-08-16T18:55:02.385Z,24.57
2022-08-16T19:00:02.947Z,24.54
2022-08-16T19:05:07.599Z,24.41
2022-08-16T19:10:12.436Z,24.32
2022-08-16T19:15:20.536Z,24.12
2022-08-16T19:20:25.866Z,23.96
2022-08-16T19:25:48.454Z,23.74
2022-08-16T19:30:54.761Z,23.52
2022-08-16T19:35:58.350Z,23.42
2022-08-16T19:41:01.510Z,23.24
2022-08-16T19:46:06.739Z,23.27
2022-08-16T19:51:10.673Z,23.26
2022-08-16T19:56:13.834Z,23.09
2022-08-16T20:01:18.380Z,23.10
2022-08-16T20:06:34.923Z,22.98
2022-08-16T20:11:41.538Z,23.15
2022-08-16T20:16:47.017Z,23.03
2022-08-16T20:21:50.193Z,22.94
2022-08-16T20:26:54.246Z,22.93
2022-08-16T20:31:58.972Z,22.75
2022-08-16T20:37:02.151Z,22.61
2022-08-16T20:42:21.380Z,22.43
2022-08-16T20:47:26.021Z,22.33
2022-08-16T20:52:28.920Z,22.25
2022-08-16T20:57:31.890Z,22.14
2022-08-16T21:02:38.052Z,22.11
2022-08-16T21:07:40.961Z,21.98
2022-08-16T21:12:49.538Z,21.93
2022-08-16T21:17:54.535Z,21.92
2022-08-16T21:22:59.957Z,21.89
2022-08-16T21:28:40.045Z,21.88
2022-08-16T21:33:29.392Z,21.68
2022-08-16T21:38:32.372Z,21.59
2022-08-16T21:43:36.421Z,21.52
2022-08-16T21:48:40.968Z,21.54
2022-08-16T21:53:44.583Z,21.51
2022-08-16T21:58:53.101Z,21.62
2022-08-16T22:04:35.499Z,21.49
2022-08-16T22:09:21.329Z,21.37
2022-08-16T22:14:24.383Z,21.31
2022-08-16T22:19:29.205Z,21.22
2022-08-16T22:24:32.568Z,21.16
2022-08-16T22:29:35.590Z,21.24
2022-08-16T22:34:59.528Z,21.19
2022-08-16T22:40:16.230Z,21.27
2022-08-16T22:45:20.564Z,21.19
2022-08-16T22:50:25.721Z,21.28
2022-08-16T22:55:29.583Z,21.36
2022-08-16T23:00:34.567Z,21.36
2022-08-16T23:05:41.372Z,21.40
2022-08-16T23:10:45.584Z,21.50
2022-08-16T23:15:51.911Z,21.55
2022-08-16T23:20:58.522Z,21.64
2022-08-16T23:26:01.747Z,21.65
2022-08-16T23:31:06.018Z,21.65
2022-08-16T23:36:11.996Z,21.63
2022-08-16T23:41:15.976Z,21.60
2022-08-16T23:46:19.823Z,21.64
2022-08-16T23:51:24.317Z,21.65
2022-08-16T23:56:27.386Z,21.64
